»·PEaware :: AAL225 KOAK-KLAS

AAL225 :: KOAK-KLAS

FLIGHT INFORMATION

Flight Status: Arrived
Operator:
American Airlines
More flights by this operator :: More flights under this callsign
Pilot: Michael R. (16974)
Aircraft: BOEING 737-800
(B738)
More flights by this aircraft type
Origin: KOAK Metro Oakland Intl
United States
Destination: KLAS McCarran Intl
United States
More flights between these airports :: More routes between these airports
Route: CNDEL3 NTELL Q162 ESSAA BTY SUNST4
File this flight plan on PilotEdge
Remarks:
Altitude:
(Current/Filed)
33,000ft
Speed:
(Current/Filed)
439kts
Departed: 11-Jun-18 08:42 PM
Arrived: 11-Jun-18 09:56 PM
Distance/Time
Traveled:
353nm/1:14
Distance/Time
To Go:
Arrived

Flight Plot

Page will automatically refresh every two minutes.

Flight plan parsing failed; only flown route is shown


Map Options




Map Legend


Flown Route
Filed Route
Departure Airport
Arrival Airport
Navaid (VOR, NDB)
Fix

Horizontal Profiles

Position Reports

Time Latitude Longitude Heading Altitude Ground
Speed
11-Jun-18 20:11 37.711107 -122.215014 341 16ft 0kts
11-Jun-18 20:12 37.711107 -122.215014 341 16ft 0kts
11-Jun-18 20:13 37.711107 -122.215014 341 16ft 0kts
11-Jun-18 20:14 37.711107 -122.215014 341 16ft 0kts
11-Jun-18 20:15 37.711107 -122.215014 341 16ft 0kts
11-Jun-18 20:16 37.711107 -122.215014 341 16ft 0kts
11-Jun-18 20:17 37.711107 -122.215014 341 16ft 0kts
11-Jun-18 20:18 37.711107 -122.215014 341 16ft 0kts
11-Jun-18 20:19 37.711107 -122.215014 341 16ft 0kts
11-Jun-18 20:20 37.711107 -122.215014 341 16ft 0kts
11-Jun-18 20:21 37.711107 -122.215014 341 16ft 0kts
11-Jun-18 20:22 37.711107 -122.215014 341 16ft 0kts
11-Jun-18 20:23 37.711107 -122.215014 341 16ft 0kts
11-Jun-18 20:24 37.711107 -122.215014 341 16ft 0kts
11-Jun-18 20:25 37.711107 -122.215014 341 16ft 0kts
11-Jun-18 20:26 37.711107 -122.215014 341 16ft 0kts
11-Jun-18 20:27 37.711080 -122.215003 341 16ft 2kts
11-Jun-18 20:28 37.710513 -122.214762 341 16ft 2kts
11-Jun-18 20:29 37.710361 -122.214270 223 16ft 1kts
11-Jun-18 20:30 37.710559 -122.214069 216 16ft 0kts
11-Jun-18 20:31 37.710559 -122.214070 216 16ft 0kts
11-Jun-18 20:32 37.710537 -122.214090 216 16ft 1kts
11-Jun-18 20:33 37.709367 -122.215227 219 16ft 0kts
11-Jun-18 20:34 37.709367 -122.215227 219 16ft 0kts
11-Jun-18 20:35 37.709367 -122.215227 219 16ft 0kts
11-Jun-18 20:36 37.709367 -122.215227 219 16ft 0kts
11-Jun-18 20:37 37.708397 -122.216305 220 16ft 15kts
11-Jun-18 20:38 37.704412 -122.214767 130 16ft 15kts
11-Jun-18 20:39 37.702482 -122.213570 191 16ft 0kts
11-Jun-18 20:40 37.702482 -122.213570 191 16ft 0kts
11-Jun-18 20:41 37.701960 -122.214060 240 16ft 9kts
11-Jun-18 20:42 37.705089 -122.219640 309 16ft 94kts
11-Jun-18 20:43 37.736082 -122.264779 306 2060ft 195kts
11-Jun-18 20:44 37.776946 -122.327646 308 2780ft 254kts
11-Jun-18 20:45 37.773638 -122.399290 204 6001ft 274kts
11-Jun-18 20:46 37.698236 -122.421061 193 8814ft 294kts
11-Jun-18 20:47 37.614512 -122.442638 192 10924ft 327kts
11-Jun-18 20:48 37.524077 -122.464780 182 13752ft 342kts
11-Jun-18 20:49 37.446212 -122.403753 125 16443ft 355kts
11-Jun-18 20:50 37.398726 -122.296915 100 18830ft 369kts
11-Jun-18 20:51 37.375729 -122.167927 102 21096ft 388kts
11-Jun-18 20:52 37.349585 -122.033304 103 23222ft 405kts
11-Jun-18 20:53 37.322079 -121.894787 103 25166ft 420kts
11-Jun-18 20:54 37.293089 -121.750542 104 26977ft 433kts
11-Jun-18 20:55 37.263755 -121.605950 105 28633ft 445kts
11-Jun-18 20:56 37.233996 -121.460413 105 30449ft 447kts
11-Jun-18 20:57 37.203839 -121.313940 107 32310ft 442kts
11-Jun-18 20:58 37.174110 -121.170594 107 32914ft 462kts
11-Jun-18 20:59 37.140710 -121.010717 107 32880ft 475kts
11-Jun-18 21:00 37.108066 -120.855637 107 32876ft 478kts
11-Jun-18 21:01 37.074213 -120.695955 107 32872ft 474kts
11-Jun-18 21:02 37.046119 -120.564359 107 32877ft 471kts
11-Jun-18 21:03 37.012202 -120.406549 107 32885ft 468kts
11-Jun-18 21:04 36.979429 -120.255052 107 32894ft 466kts
11-Jun-18 21:05 36.946509 -120.103853 107 32896ft 464kts
11-Jun-18 21:06 36.911324 -119.921114 91 32905ft 467kts
11-Jun-18 21:07 36.942420 -119.763122 69 32898ft 472kts
11-Jun-18 21:08 36.990100 -119.613221 68 32899ft 475kts
11-Jun-18 21:09 37.030941 -119.485282 68 32899ft 479kts
11-Jun-18 21:10 37.079313 -119.334161 69 32898ft 484kts
11-Jun-18 21:11 37.129065 -119.179439 68 33011ft 488kts
11-Jun-18 21:12 37.179809 -119.022101 68 33229ft 488kts
11-Jun-18 21:13 37.230808 -118.864473 68 33175ft 487kts
11-Jun-18 21:14 37.279165 -118.705651 80 33146ft 487kts
11-Jun-18 21:15 37.294729 -118.537653 85 32970ft 486kts
11-Jun-18 21:16 37.309250 -118.368699 84 32967ft 487kts
11-Jun-18 21:17 37.323507 -118.207308 85 32961ft 486kts
11-Jun-18 21:18 37.338638 -118.038446 84 32961ft 487kts
11-Jun-18 21:19 37.351050 -117.869823 96 32961ft 483kts
11-Jun-18 21:20 37.335329 -117.702323 99 32964ft 483kts
11-Jun-18 21:21 37.319977 -117.538576 98 32989ft 466kts
11-Jun-18 21:22 37.305099 -117.375975 98 33071ft 468kts
11-Jun-18 21:23 37.255194 -117.242934 130 31815ft 453kts
11-Jun-18 21:24 37.180073 -117.118287 131 30233ft 439kts
11-Jun-18 21:25 37.106863 -116.997711 130 28801ft 435kts
11-Jun-18 21:26 37.020124 -116.901603 152 27350ft 413kts
11-Jun-18 21:27 36.921986 -116.832924 152 25834ft 400kts
11-Jun-18 21:28 36.831183 -116.769823 151 24405ft 394kts
11-Jun-18 21:29 36.751179 -116.680094 132 23921ft 394kts
11-Jun-18 21:30 36.680016 -116.577720 132 22311ft 375kts
11-Jun-18 21:31 36.611076 -116.479276 132 21392ft 380kts
11-Jun-18 21:32 36.542433 -116.381710 131 20473ft 374kts
11-Jun-18 21:33 36.477716 -116.290092 132 19608ft 369kts
11-Jun-18 21:34 36.410419 -116.195150 132 18711ft 365kts
11-Jun-18 21:35 36.343789 -116.101441 132 17824ft 360kts
11-Jun-18 21:36 36.277764 -116.008860 132 17099ft 355kts
11-Jun-18 21:37 36.215707 -115.922058 132 16270ft 318kts
11-Jun-18 21:38 36.175357 -115.827230 112 15379ft 317kts
11-Jun-18 21:39 36.143647 -115.726910 112 14413ft 312kts
11-Jun-18 21:40 36.111940 -115.627701 112 13452ft 308kts
11-Jun-18 21:41 36.080466 -115.529851 111 12476ft 305kts
11-Jun-18 21:42 36.049648 -115.434499 111 11548ft 288kts
11-Jun-18 21:43 36.026625 -115.346449 96 11025ft 275kts
11-Jun-18 21:44 36.020718 -115.254708 95 11013ft 276kts
11-Jun-18 21:45 36.014166 -115.155573 95 9023ft 311kts
11-Jun-18 21:46 36.007596 -115.051767 95 8009ft 286kts
11-Jun-18 21:47 36.002487 -114.962272 95 8006ft 243kts
11-Jun-18 21:48 35.997575 -114.878927 95 8016ft 244kts
11-Jun-18 21:49 35.992497 -114.794591 92 6946ft 246kts
11-Jun-18 21:50 36.041337 -114.752891 6 6513ft 247kts
11-Jun-18 21:51 36.082147 -114.800389 266 6510ft 242kts
11-Jun-18 21:52 36.075072 -114.882626 264 6106ft 243kts
11-Jun-18 21:53 36.073312 -114.968515 269 4686ft 256kts
11-Jun-18 21:54 36.073591 -115.048913 267 3400ft 195kts
11-Jun-18 21:55 36.073682 -115.105432 266 2563ft 154kts
11-Jun-18 21:56 36.074025 -115.148996 299 2189ft 21kts
11-Jun-18 21:57 36.075171 -115.151187 320 2189ft 12kts
11-Jun-18 21:58 36.077538 -115.152600 333 2189ft 0kts
11-Jun-18 21:59 36.080785 -115.154409 356 2189ft 25kts
11-Jun-18 22:00 36.083997 -115.152165 88 2189ft 0kts
11-Jun-18 22:01 36.083997 -115.152165 88 2189ft 0kts
11-Jun-18 22:02 36.083997 -115.152165 88 2189ft 0kts
11-Jun-18 22:03 36.083997 -115.152165 88 2189ft 0kts
11-Jun-18 22:04 36.083997 -115.152165 88 2189ft 0kts
11-Jun-18 22:05 36.083997 -115.152165 88 2189ft 0kts
11-Jun-18 22:06 36.083997 -115.152165 88 2189ft 0kts
11-Jun-18 22:07 36.083997 -115.152165 88 2189ft 0kts
11-Jun-18 22:08 36.083997 -115.152165 88 2189ft 0kts
11-Jun-18 22:09 36.083997 -115.152165 88 2189ft 0kts
11-Jun-18 22:10 36.083997 -115.152165 88 2189ft 0kts

Navigation Log

Ident Type
Flight plan parsing failed, navigation log unavailable